createdAt,value
2019-03-21T00:01:29.167Z,19.20
2019-03-21T00:04:01.984Z,22.37
2019-03-21T00:06:31.990Z,25.43
2019-03-21T00:09:02.036Z,19.10
2019-03-21T00:11:59.834Z,22.67
2019-03-21T00:15:11.936Z,21.13
2019-03-21T00:17:49.420Z,24.60
2019-03-21T00:20:19.454Z,15.90
2019-03-21T00:22:49.496Z,21.30
2019-03-21T00:25:22.365Z,21.37
2019-03-21T00:27:52.392Z,20.40
2019-03-21T00:30:23.412Z,20.07
2019-03-21T00:32:54.060Z,21.47
2019-03-21T00:35:24.287Z,25.70
2019-03-21T00:37:54.307Z,23.67
2019-03-21T00:40:27.374Z,20.13
2019-03-21T00:42:58.704Z,24.13
2019-03-21T00:45:28.825Z,19.83
2019-03-21T00:47:59.095Z,19.90
2019-03-21T00:50:29.144Z,24.10
2019-03-21T00:52:59.272Z,21.13
2019-03-21T00:55:30.790Z,21.30
2019-03-21T00:58:00.947Z,27.40
2019-03-21T01:00:34.812Z,20.03
2019-03-21T01:03:04.863Z,24.63
2019-03-21T01:05:34.861Z,22.80
2019-03-21T01:08:04.877Z,23.43
2019-03-21T01:10:34.933Z,28.73
2019-03-21T01:13:04.999Z,21.47
2019-03-21T01:15:35.153Z,25.03
2019-03-21T01:18:05.509Z,23.87
2019-03-21T01:20:35.611Z,24.03
2019-03-21T01:23:05.919Z,25.70
2019-03-21T01:25:39.273Z,28.17
2019-03-21T01:28:09.390Z,26.70
2019-03-21T01:30:39.543Z,25.13
2019-03-21T01:33:09.555Z,29.40
2019-03-21T01:35:41.227Z,26.30
2019-03-21T01:38:11.229Z,25.73
2019-03-21T01:40:42.539Z,21.53
2019-03-21T01:43:12.755Z,25.07
2019-03-21T01:45:42.871Z,21.27
2019-03-21T01:48:13.445Z,23.97
2019-03-21T01:50:43.587Z,20.80
2019-03-21T01:53:13.878Z,23.17
2019-03-21T01:55:43.893Z,26.43
2019-03-21T01:58:13.941Z,24.17
2019-03-21T02:00:43.977Z,21.57
2019-03-21T02:03:13.963Z,27.67
2019-03-21T02:05:44.318Z,26.07
2019-03-21T02:08:14.572Z,22.73
2019-03-21T02:10:44.587Z,21.30
2019-03-21T02:13:14.632Z,27.67
2019-03-21T02:15:46.555Z,25.23
2019-03-21T02:18:16.501Z,27.03
2019-03-21T02:20:46.551Z,25.30
2019-03-21T02:23:16.641Z,34.87
2019-03-21T02:25:46.781Z,32.07
2019-03-21T02:28:17.207Z,41.03
2019-03-21T02:30:47.274Z,31.10
2019-03-21T02:33:23.335Z,28.37
2019-03-21T02:35:53.476Z,26.43
2019-03-21T02:38:23.588Z,27.53
2019-03-21T02:40:53.661Z,25.80
2019-03-21T02:43:23.846Z,26.83
2019-03-21T02:45:54.041Z,27.07
2019-03-21T02:48:24.152Z,26.30
2019-03-21T02:50:54.420Z,26.43
2019-03-21T02:53:24.687Z,21.83
2019-03-21T02:55:54.744Z,22.27
2019-03-21T02:58:24.849Z,28.97
2019-03-21T03:00:54.844Z,26.30
2019-03-21T03:03:24.830Z,27.07
2019-03-21T03:05:55.332Z,26.60
2019-03-21T03:08:25.360Z,27.70
2019-03-21T03:10:55.870Z,25.70
2019-03-21T03:13:26.196Z,27.17
2019-03-21T03:15:56.209Z,23.70
2019-03-21T03:18:26.297Z,25.67
2019-03-21T03:20:56.635Z,23.33
2019-03-21T03:23:26.808Z,23.87
2019-03-21T03:25:56.864Z,21.17
2019-03-21T03:28:27.379Z,21.87
2019-03-21T03:30:57.865Z,20.67
2019-03-21T03:33:28.879Z,22.40
2019-03-21T03:36:00.383Z,22.00
2019-03-21T03:38:30.957Z,22.07
2019-03-21T03:41:01.697Z,23.23
2019-03-21T03:43:31.726Z,26.97
2019-03-21T03:46:01.842Z,20.90
2019-03-21T03:48:32.088Z,23.57
2019-03-21T03:51:02.493Z,24.30
2019-03-21T03:53:32.551Z,29.23
2019-03-21T03:56:02.547Z,22.40
2019-03-21T03:58:32.610Z,18.83
2019-03-21T04:01:03.116Z,19.80
2019-03-21T04:03:33.109Z,21.33
2019-03-21T04:06:03.202Z,23.93
2019-03-21T04:08:33.414Z,22.83
2019-03-21T04:11:03.571Z,23.13
2019-03-21T04:13:33.663Z,19.63
2019-03-21T04:16:03.809Z,21.37
2019-03-21T04:18:33.799Z,23.97
2019-03-21T04:21:04.323Z,26.90
2019-03-21T04:23:34.489Z,22.57
2019-03-21T04:26:11.084Z,27.33
2019-03-21T04:28:41.472Z,28.10
2019-03-21T04:31:11.451Z,21.83
2019-03-21T04:33:41.780Z,22.27
2019-03-21T04:36:11.845Z,30.10
2019-03-21T04:38:42.125Z,22.33
2019-03-21T04:41:12.671Z,25.40
2019-03-21T04:43:43.131Z,21.93
2019-03-21T04:46:13.151Z,26.37
2019-03-21T04:48:43.688Z,24.23
2019-03-21T04:51:13.919Z,27.03
2019-03-21T04:53:44.043Z,23.23
2019-03-21T04:56:14.092Z,24.73
2019-03-21T04:58:44.103Z,24.37
2019-03-21T05:01:14.178Z,22.97
2019-03-21T05:03:44.190Z,25.27
2019-03-21T05:06:14.213Z,26.37
2019-03-21T05:08:44.379Z,24.27
2019-03-21T05:11:14.486Z,29.53
2019-03-21T05:13:44.634Z,27.87
2019-03-21T05:16:15.261Z,32.63
2019-03-21T05:18:46.157Z,36.57
2019-03-21T05:21:17.960Z,29.47
2019-03-21T05:23:48.028Z,33.13
2019-03-21T05:26:18.060Z,28.53
2019-03-21T05:28:48.066Z,34.57
2019-03-21T05:31:22.079Z,31.23
2019-03-21T05:33:52.470Z,30.83
2019-03-21T05:36:23.050Z,33.90
2019-03-21T05:38:53.114Z,33.37
2019-03-21T05:41:23.234Z,34.30
2019-03-21T05:43:57.041Z,32.63
2019-03-21T05:46:27.339Z,35.43
2019-03-21T05:48:57.410Z,35.60
2019-03-21T05:51:27.469Z,34.47
2019-03-21T05:53:57.567Z,36.57
2019-03-21T05:56:27.821Z,31.47
2019-03-21T05:58:57.987Z,32.23
2019-03-21T06:01:29.950Z,33.87
2019-03-21T06:03:59.926Z,32.73
2019-03-21T06:06:46.130Z,34.53
2019-03-21T06:09:18.236Z,32.30
2019-03-21T06:11:51.692Z,32.67
2019-03-21T06:14:21.719Z,32.00
2019-03-21T06:16:51.811Z,30.97
2019-03-21T06:19:26.852Z,27.73
2019-03-21T06:22:46.396Z,26.40
2019-03-21T06:25:53.404Z,32.60
2019-03-21T06:28:23.429Z,23.77
2019-03-21T06:30:53.489Z,26.13
2019-03-21T06:33:23.558Z,29.07
2019-03-21T06:35:53.608Z,25.77
2019-03-21T06:38:23.781Z,26.70
2019-03-21T06:40:54.312Z,31.90
2019-03-21T06:43:24.365Z,28.50
2019-03-21T06:45:54.402Z,29.97
2019-03-21T06:48:24.480Z,26.13
2019-03-21T06:50:55.030Z,30.53
2019-03-21T06:53:25.045Z,30.57
2019-03-21T06:55:55.117Z,27.70
2019-03-21T06:58:25.278Z,27.27
2019-03-21T07:00:55.382Z,30.97
2019-03-21T07:03:25.418Z,24.50
2019-03-21T07:05:55.605Z,27.57
2019-03-21T07:08:25.985Z,24.73
2019-03-21T07:10:58.269Z,22.17
2019-03-21T07:13:27.706Z,25.17
2019-03-21T07:15:57.706Z,29.17
2019-03-21T07:18:27.928Z,27.93
2019-03-21T07:20:58.035Z,37.53
2019-03-21T07:23:28.066Z,27.33
2019-03-21T07:25:58.068Z,36.90
2019-03-21T07:28:28.706Z,25.43
2019-03-21T07:30:58.786Z,24.33
2019-03-21T07:33:28.915Z,21.97
2019-03-21T07:35:59.482Z,23.00
2019-03-21T07:38:30.386Z,26.80
2019-03-21T07:41:00.425Z,26.27
2019-03-21T07:43:30.485Z,22.50
2019-03-21T07:46:01.199Z,25.97
2019-03-21T07:48:31.243Z,27.93
2019-03-21T07:51:01.289Z,26.53
2019-03-21T07:53:31.644Z,21.63
2019-03-21T07:56:01.761Z,26.93
2019-03-21T07:58:33.067Z,29.10
2019-03-21T08:01:03.351Z,28.13
2019-03-21T08:03:33.449Z,25.30
2019-03-21T08:06:03.555Z,27.90
2019-03-21T08:08:33.709Z,23.67
2019-03-21T08:11:03.761Z,20.00
2019-03-21T08:13:33.847Z,23.73
2019-03-21T08:16:03.909Z,21.30
2019-03-21T08:18:34.493Z,24.27
2019-03-21T08:21:04.681Z,22.20
2019-03-21T08:23:34.803Z,29.92
2019-03-21T08:26:04.971Z,30.97
2019-03-21T08:28:35.355Z,29.42
2019-03-21T08:31:30.373Z,23.73
2019-03-21T08:34:00.487Z,23.50
2019-03-21T08:36:32.931Z,27.50
2019-03-21T08:39:03.043Z,19.47
2019-03-21T08:41:33.244Z,19.75
2019-03-21T08:44:03.452Z,17.62
2019-03-21T08:46:34.022Z,27.03
2019-03-21T08:49:04.200Z,25.88
2019-03-21T08:51:34.384Z,22.27
2019-03-21T08:54:04.617Z,25.40
2019-03-21T08:56:34.774Z,17.90
2019-03-21T08:59:04.920Z,23.03
2019-03-21T09:01:35.085Z,33.10
2019-03-21T09:04:05.156Z,26.93
2019-03-21T09:06:35.128Z,19.75
2019-03-21T09:09:07.756Z,18.90
2019-03-21T09:11:38.119Z,26.37
2019-03-21T09:14:08.229Z,18.02
2019-03-21T09:16:38.522Z,18.70
2019-03-21T09:19:08.685Z,17.05
2019-03-21T09:21:38.777Z,16.43
2019-03-21T09:24:08.955Z,14.98
2019-03-21T09:26:39.154Z,18.03
2019-03-21T09:29:09.308Z,17.83
2019-03-21T09:31:39.458Z,16.07
2019-03-21T09:34:09.718Z,22.48
2019-03-21T09:36:39.847Z,20.05
2019-03-21T09:39:10.030Z,25.95
2019-03-21T09:41:40.264Z,25.45
2019-03-21T09:44:10.366Z,23.02
2019-03-21T09:46:50.513Z,20.27
2019-03-21T09:49:12.546Z,14.30
2019-03-21T09:51:42.561Z,13.83
2019-03-21T09:54:12.626Z,13.08
2019-03-21T09:56:42.803Z,14.68
2019-03-21T09:59:13.395Z,13.53
2019-03-21T10:01:43.366Z,10.63
2019-03-21T10:04:13.400Z,9.28
2019-03-21T10:06:43.567Z,11.75
2019-03-21T10:09:14.023Z,10.48
2019-03-21T10:11:44.023Z,9.18
2019-03-21T10:14:14.158Z,9.30
2019-03-21T10:16:44.152Z,16.85
2019-03-21T10:19:14.450Z,9.90
2019-03-21T10:21:44.546Z,11.12
2019-03-21T10:24:14.688Z,11.70
2019-03-21T10:26:44.925Z,8.98
2019-03-21T10:29:15.126Z,11.70
2019-03-21T10:31:45.312Z,8.43
2019-03-21T10:34:15.425Z,7.85
2019-03-21T10:36:45.441Z,7.67
2019-03-21T10:39:15.477Z,6.85
2019-03-21T10:41:45.604Z,7.83
2019-03-21T10:44:15.867Z,7.17
2019-03-21T10:46:46.009Z,9.68
2019-03-21T10:49:16.546Z,8.25
2019-03-21T10:51:55.026Z,8.80
2019-03-21T10:54:18.923Z,9.43
2019-03-21T10:56:49.063Z,8.75
2019-03-21T10:59:19.262Z,10.15
2019-03-21T11:01:49.245Z,12.95
2019-03-21T11:04:19.366Z,11.05
2019-03-21T11:06:49.413Z,10.00
2019-03-21T11:09:19.519Z,7.60
2019-03-21T11:11:49.734Z,11.48
2019-03-21T11:14:20.049Z,12.37
2019-03-21T11:16:50.089Z,8.45
2019-03-21T11:19:20.369Z,10.25
2019-03-21T11:21:50.555Z,9.55
2019-03-21T11:24:20.717Z,12.70
2019-03-21T11:26:50.901Z,14.58
2019-03-21T11:29:21.001Z,10.50
2019-03-21T11:31:51.030Z,8.55
2019-03-21T11:34:21.254Z,9.78
2019-03-21T11:36:51.444Z,7.70
2019-03-21T11:39:21.591Z,14.55
2019-03-21T11:41:51.617Z,9.65
2019-03-21T11:44:21.653Z,10.78
2019-03-21T11:46:51.707Z,8.38
2019-03-21T11:49:21.719Z,10.90
2019-03-21T11:51:51.851Z,8.20
2019-03-21T11:54:21.907Z,8.00
2019-03-21T11:56:52.053Z,10.82
2019-03-21T11:59:22.182Z,9.48
2019-03-21T12:01:52.280Z,7.78
2019-03-21T12:04:22.293Z,10.18
2019-03-21T12:06:52.403Z,15.32
2019-03-21T12:09:22.428Z,9.43
2019-03-21T12:11:52.532Z,15.08
2019-03-21T12:14:22.811Z,13.20
2019-03-21T12:16:52.908Z,14.83
2019-03-21T12:19:22.939Z,10.35
2019-03-21T12:21:52.997Z,12.82
2019-03-21T12:24:23.221Z,10.48
2019-03-21T12:26:53.525Z,8.45
2019-03-21T12:29:23.654Z,10.32
2019-03-21T12:31:53.854Z,8.65
2019-03-21T12:34:24.057Z,12.15
2019-03-21T12:36:54.268Z,11.57
2019-03-21T12:39:24.498Z,12.50
2019-03-21T12:41:54.518Z,12.10
2019-03-21T12:44:24.704Z,8.35
2019-03-21T12:46:54.822Z,10.88
2019-03-21T12:49:25.206Z,8.33
2019-03-21T12:51:55.277Z,11.10
2019-03-21T12:54:25.308Z,9.05
2019-03-21T12:56:55.308Z,11.10
2019-03-21T12:59:25.869Z,8.30
2019-03-21T13:01:56.169Z,9.90
2019-03-21T13:04:26.249Z,8.63
2019-03-21T13:06:56.298Z,8.78
2019-03-21T13:09:26.302Z,9.48
2019-03-21T13:11:56.283Z,11.28
2019-03-21T13:14:26.395Z,6.95
2019-03-21T13:16:56.432Z,10.63
2019-03-21T13:19:26.520Z,10.75
2019-03-21T13:21:56.632Z,10.03
2019-03-21T13:24:26.851Z,7.47
2019-03-21T13:26:57.042Z,12.07
2019-03-21T13:29:27.263Z,11.15
2019-03-21T13:31:57.616Z,8.55
2019-03-21T13:34:27.765Z,12.55
2019-03-21T13:36:57.922Z,8.58
2019-03-21T13:39:28.288Z,8.90
2019-03-21T13:41:58.436Z,8.45
2019-03-21T13:44:28.523Z,7.80
2019-03-21T13:46:58.811Z,14.05
2019-03-21T13:49:28.915Z,9.43
2019-03-21T13:51:58.969Z,11.08
2019-03-21T13:54:29.429Z,12.00
2019-03-21T13:56:59.438Z,7.45
2019-03-21T13:59:29.584Z,10.85
2019-03-21T14:01:59.886Z,7.42
2019-03-21T14:04:29.975Z,9.93
2019-03-21T14:07:00.157Z,13.30
2019-03-21T14:09:30.548Z,8.88
2019-03-21T14:12:00.585Z,10.00
2019-03-21T14:14:31.003Z,11.03
2019-03-21T14:17:00.996Z,8.78
2019-03-21T14:19:31.056Z,14.58
2019-03-21T14:22:01.056Z,12.68
2019-03-21T14:24:31.061Z,12.43
2019-03-21T14:27:01.229Z,10.40
2019-03-21T14:29:31.399Z,9.35
2019-03-21T14:32:01.470Z,5.83
2019-03-21T14:34:31.526Z,12.60
2019-03-21T14:37:01.601Z,7.92
2019-03-21T14:39:31.638Z,10.93
2019-03-21T14:42:01.944Z,12.00
2019-03-21T14:44:31.980Z,12.20
2019-03-21T14:47:02.070Z,9.70
2019-03-21T14:49:32.076Z,8.30
2019-03-21T14:52:02.204Z,9.93
2019-03-21T14:54:32.404Z,9.25
2019-03-21T14:57:02.551Z,10.63
2019-03-21T14:59:32.817Z,13.50
2019-03-21T15:02:03.252Z,14.33
2019-03-21T15:04:33.209Z,8.05
2019-03-21T15:07:03.367Z,8.48
2019-03-21T15:09:33.582Z,10.18
2019-03-21T15:12:03.612Z,6.03
2019-03-21T15:14:33.723Z,10.93
2019-03-21T15:17:03.891Z,16.10
2019-03-21T15:19:34.052Z,10.18
2019-03-21T15:22:04.119Z,11.57
2019-03-21T15:24:34.164Z,14.00
2019-03-21T15:27:04.256Z,11.28
2019-03-21T15:29:35.463Z,9.48
2019-03-21T15:32:05.715Z,8.28
2019-03-21T15:34:35.732Z,9.27
2019-03-21T15:37:05.767Z,9.65
2019-03-21T15:39:35.895Z,17.00
2019-03-21T15:42:06.134Z,14.65
2019-03-21T15:44:36.239Z,10.23
2019-03-21T15:47:16.066Z,10.88
2019-03-21T15:49:46.130Z,11.57
2019-03-21T15:52:16.170Z,12.85
2019-03-21T15:54:46.221Z,12.10
2019-03-21T15:57:16.259Z,9.75
2019-03-21T15:59:46.332Z,19.87
2019-03-21T16:02:16.452Z,13.35
2019-03-21T16:04:46.714Z,18.25
2019-03-21T16:07:16.912Z,12.95
2019-03-21T16:09:47.058Z,11.93
2019-03-21T16:12:17.256Z,17.37
2019-03-21T16:14:49.234Z,11.35
2019-03-21T16:17:18.960Z,13.55
2019-03-21T16:19:48.976Z,13.10
2019-03-21T16:22:19.057Z,14.60
2019-03-21T16:24:49.135Z,15.63
2019-03-21T16:27:19.164Z,15.43
2019-03-21T16:29:49.316Z,12.28
2019-03-21T16:32:19.434Z,14.33
2019-03-21T16:34:49.951Z,16.15
2019-03-21T16:37:20.009Z,14.37
2019-03-21T16:39:50.045Z,15.27
2019-03-21T16:42:20.068Z,16.23
2019-03-21T16:44:50.104Z,12.70
2019-03-21T16:47:20.180Z,10.37
2019-03-21T16:49:50.243Z,15.57
2019-03-21T16:52:20.456Z,14.15
2019-03-21T16:54:50.598Z,20.07
2019-03-21T16:57:20.957Z,19.42
2019-03-21T16:59:51.055Z,17.00
2019-03-21T17:02:21.244Z,27.13
2019-03-21T17:04:51.427Z,28.55
2019-03-21T17:07:21.559Z,24.82
2019-03-21T17:09:51.602Z,26.82
2019-03-21T17:12:21.815Z,29.05
2019-03-21T17:14:51.917Z,31.62
2019-03-21T17:17:22.253Z,32.93
2019-03-21T17:19:52.482Z,30.00
2019-03-21T17:22:22.561Z,36.33
2019-03-21T17:24:52.731Z,54.10
2019-03-21T17:27:22.951Z,45.90
2019-03-21T17:29:53.200Z,52.83
2019-03-21T17:32:23.242Z,46.47
2019-03-21T17:34:53.528Z,51.05
2019-03-21T17:37:26.736Z,57.78
2019-03-21T17:39:56.898Z,68.92
2019-03-21T17:42:27.099Z,68.47
2019-03-21T17:44:57.181Z,64.82
2019-03-21T17:47:27.229Z,56.00
2019-03-21T17:49:57.375Z,53.78
2019-03-21T17:52:27.735Z,61.85
2019-03-21T17:54:57.854Z,56.90
2019-03-21T17:57:34.265Z,54.75
2019-03-21T17:59:59.902Z,47.70
2019-03-21T18:02:30.508Z,51.25
2019-03-21T18:05:00.671Z,46.57
2019-03-21T18:07:31.073Z,39.57
2019-03-21T18:10:01.154Z,45.08
2019-03-21T18:12:31.235Z,34.43
2019-03-21T18:15:01.569Z,30.37
2019-03-21T18:17:31.787Z,33.50
2019-03-21T18:20:03.171Z,34.63
2019-03-21T18:22:33.416Z,39.70
2019-03-21T18:25:03.767Z,31.83
2019-03-21T18:27:33.927Z,29.80
2019-03-21T18:30:04.756Z,26.80
2019-03-21T18:32:34.769Z,24.45
2019-03-21T18:35:05.118Z,28.13
2019-03-21T18:37:35.295Z,24.83
2019-03-21T18:40:07.004Z,26.45
2019-03-21T18:42:37.273Z,27.37
2019-03-21T18:45:07.795Z,24.67
2019-03-21T18:47:37.944Z,27.13
2019-03-21T18:50:09.557Z,29.87
2019-03-21T18:52:39.666Z,27.60
2019-03-21T18:55:10.143Z,28.10
2019-03-21T18:57:40.357Z,34.55
2019-03-21T19:00:11.399Z,29.63
2019-03-21T19:02:41.527Z,31.23
2019-03-21T19:05:11.790Z,30.67
2019-03-21T19:07:41.831Z,38.87
2019-03-21T19:10:12.298Z,39.25
2019-03-21T19:12:42.808Z,37.70
2019-03-21T19:15:14.365Z,35.60
2019-03-21T19:17:44.358Z,37.70
2019-03-21T19:20:14.694Z,32.77
2019-03-21T19:22:44.701Z,42.30
2019-03-21T19:25:18.755Z,35.48
2019-03-21T19:27:46.999Z,33.00
2019-03-21T19:30:17.151Z,38.43
2019-03-21T19:32:47.243Z,35.60
2019-03-21T19:35:17.460Z,39.50
2019-03-21T19:37:47.517Z,38.67
2019-03-21T19:40:18.410Z,39.40
2019-03-21T19:42:48.555Z,44.10
2019-03-21T19:45:19.112Z,45.83
2019-03-21T19:47:49.163Z,45.13
2019-03-21T19:50:19.627Z,46.50
2019-03-21T19:52:49.871Z,55.20
2019-03-21T19:55:30.381Z,51.17
2019-03-21T19:57:51.947Z,55.73
2019-03-21T20:00:23.118Z,54.50
2019-03-21T20:02:53.123Z,47.87
2019-03-21T20:05:23.263Z,45.67
2019-03-21T20:07:53.571Z,44.93
2019-03-21T20:10:23.787Z,45.47
2019-03-21T20:12:54.752Z,41.00
2019-03-21T20:15:24.945Z,40.40
2019-03-21T20:17:55.129Z,46.37
2019-03-21T20:20:25.196Z,45.87
2019-03-21T20:22:55.212Z,47.40
2019-03-21T20:25:25.367Z,51.97
2019-03-21T20:27:55.563Z,44.67
2019-03-21T20:30:25.795Z,47.00
2019-03-21T20:32:55.925Z,52.37
2019-03-21T20:35:26.019Z,46.90
2019-03-21T20:37:56.043Z,49.47
2019-03-21T20:40:26.059Z,50.83
2019-03-21T20:42:56.213Z,45.43
2019-03-21T20:45:26.388Z,47.70
2019-03-21T20:47:56.833Z,55.20
2019-03-21T20:50:26.932Z,49.23
2019-03-21T20:52:56.987Z,47.90
2019-03-21T20:55:27.109Z,47.47
2019-03-21T20:57:57.292Z,43.63
2019-03-21T21:00:27.429Z,46.37
2019-03-21T21:02:57.619Z,44.80
2019-03-21T21:05:27.684Z,43.83
2019-03-21T21:07:57.989Z,40.77
2019-03-21T21:10:28.147Z,42.50
2019-03-21T21:12:58.267Z,40.60
2019-03-21T21:15:28.423Z,38.07
2019-03-21T21:17:58.742Z,38.90
2019-03-21T21:20:28.808Z,36.07
2019-03-21T21:22:59.188Z,33.63
2019-03-21T21:25:29.281Z,38.30
2019-03-21T21:27:59.325Z,44.80
2019-03-21T21:30:29.567Z,37.20
2019-03-21T21:32:59.617Z,34.80
2019-03-21T21:35:29.858Z,40.70
2019-03-21T21:38:00.160Z,36.23
2019-03-21T21:40:32.755Z,32.20
2019-03-21T21:43:02.914Z,34.50
2019-03-21T21:45:33.024Z,34.67
2019-03-21T21:48:03.087Z,33.60
2019-03-21T21:50:33.255Z,33.33
2019-03-21T21:53:03.388Z,36.90
2019-03-21T21:55:33.614Z,34.33
2019-03-21T21:58:03.843Z,36.10
2019-03-21T22:00:33.889Z,39.53
2019-03-21T22:03:04.317Z,40.40
2019-03-21T22:05:34.456Z,36.03
2019-03-21T22:08:04.614Z,37.30
2019-03-21T22:10:34.737Z,41.80
2019-03-21T22:13:04.804Z,37.13
2019-03-21T22:15:35.058Z,36.80
2019-03-21T22:18:05.158Z,39.00
2019-03-21T22:20:35.433Z,37.13
2019-03-21T22:23:05.671Z,37.53
2019-03-21T22:25:35.744Z,41.40
2019-03-21T22:28:05.958Z,35.43
2019-03-21T22:30:36.193Z,36.93
2019-03-21T22:33:06.260Z,40.83
2019-03-21T22:35:36.388Z,42.53
2019-03-21T22:38:06.470Z,37.97
2019-03-21T22:40:36.600Z,36.93
2019-03-21T22:43:06.651Z,39.47
2019-03-21T22:45:36.854Z,36.33
2019-03-21T22:48:07.091Z,35.50
2019-03-21T22:50:37.199Z,36.70
2019-03-21T22:53:07.512Z,39.10
2019-03-21T22:55:38.070Z,35.50
2019-03-21T22:58:08.116Z,37.17
2019-03-21T23:00:41.597Z,35.30
2019-03-21T23:03:11.885Z,39.57
2019-03-21T23:05:42.027Z,35.43
2019-03-21T23:08:12.174Z,36.43
2019-03-21T23:10:45.024Z,37.03
2019-03-21T23:13:14.545Z,32.67
2019-03-21T23:15:45.023Z,32.83
2019-03-21T23:18:15.058Z,40.07
2019-03-21T23:20:45.213Z,31.83
2019-03-21T23:23:15.267Z,38.97
2019-03-21T23:25:45.403Z,33.83
2019-03-21T23:28:15.570Z,35.37
2019-03-21T23:30:45.649Z,34.77
2019-03-21T23:33:15.989Z,29.03
2019-03-21T23:35:46.215Z,33.50
2019-03-21T23:38:16.395Z,30.23
2019-03-21T23:40:46.424Z,35.33
2019-03-21T23:43:16.785Z,33.57
2019-03-21T23:45:46.828Z,31.43
2019-03-21T23:48:16.853Z,32.13
2019-03-21T23:50:46.943Z,31.70
2019-03-21T23:53:16.999Z,30.10
2019-03-21T23:55:47.341Z,36.73
2019-03-21T23:58:17.451Z,33.93
